createdAt,value
2022-08-29T00:02:00.160Z,14.36
2022-08-29T00:04:26.903Z,14.40
2022-08-29T00:06:54.328Z,14.36
2022-08-29T00:09:20.827Z,14.40
2022-08-29T00:11:47.350Z,14.39
2022-08-29T00:14:21.129Z,14.39
2022-08-29T00:16:50.528Z,14.31
2022-08-29T00:19:17.141Z,14.32
2022-08-29T00:21:43.611Z,14.31
2022-08-29T00:24:10.123Z,14.32
2022-08-29T00:26:36.573Z,14.28
2022-08-29T00:29:03.370Z,14.31
2022-08-29T00:31:29.877Z,14.26
2022-08-29T00:33:57.645Z,14.26
2022-08-29T00:36:25.301Z,14.27
2022-08-29T00:38:52.472Z,14.25
2022-08-29T00:41:19.315Z,14.20
2022-08-29T00:43:46.503Z,14.20
2022-08-29T00:46:34.859Z,14.17
2022-08-29T00:49:06.199Z,14.22
2022-08-29T00:51:32.998Z,14.19
2022-08-29T00:54:01.632Z,14.22
2022-08-29T00:56:28.254Z,14.18
2022-08-29T00:59:03.532Z,14.17
2022-08-29T01:01:30.044Z,14.14
2022-08-29T01:03:56.869Z,14.09
2022-08-29T01:06:26.115Z,13.99
2022-08-29T01:08:57.185Z,13.91
2022-08-29T01:11:44.168Z,13.86
2022-08-29T01:14:11.009Z,13.87
2022-08-29T01:16:38.751Z,13.89
2022-08-29T01:19:26.267Z,13.92
2022-08-29T01:22:24.242Z,13.84
2022-08-29T01:24:52.944Z,13.93
2022-08-29T01:27:23.362Z,13.88
2022-08-29T01:29:50.721Z,13.89
2022-08-29T01:32:17.558Z,13.90
2022-08-29T01:34:45.603Z,13.85
2022-08-29T01:37:14.533Z,13.78
2022-08-29T01:39:42.780Z,13.75
2022-08-29T01:42:16.402Z,13.76
2022-08-29T01:44:49.196Z,13.70
2022-08-29T01:47:16.685Z,13.62
2022-08-29T01:49:45.321Z,13.72
2022-08-29T01:52:12.775Z,13.56
2022-08-29T01:54:43.768Z,13.43
2022-08-29T01:57:13.170Z,13.44
2022-08-29T01:59:40.817Z,13.49
2022-08-29T02:02:17.313Z,13.46
2022-08-29T02:04:46.038Z,13.33
2022-08-29T02:07:14.084Z,13.30
2022-08-29T02:09:45.675Z,13.27
2022-08-29T02:12:13.648Z,13.30
2022-08-29T02:14:41.299Z,13.27
2022-08-29T02:17:08.265Z,13.24
2022-08-29T02:19:36.197Z,13.20
2022-08-29T02:22:04.529Z,13.14
2022-08-29T02:24:31.148Z,13.16
2022-08-29T02:26:58.317Z,13.09
2022-08-29T02:29:37.321Z,13.05
2022-08-29T02:32:08.361Z,13.01
2022-08-29T02:34:35.457Z,12.96
2022-08-29T02:37:02.284Z,12.90
2022-08-29T02:39:28.823Z,12.92
2022-08-29T02:41:55.310Z,12.93
2022-08-29T02:44:21.857Z,12.92
2022-08-29T02:46:48.634Z,12.85
2022-08-29T02:49:15.724Z,12.84
2022-08-29T02:51:42.506Z,12.80
2022-08-29T02:54:09.551Z,12.86
2022-08-29T02:56:36.747Z,12.79
2022-08-29T02:59:03.477Z,12.76
2022-08-29T03:01:31.288Z,12.79
2022-08-29T03:03:58.088Z,12.80
2022-08-29T03:06:24.541Z,12.69
2022-08-29T03:08:51.178Z,12.66
2022-08-29T03:11:21.192Z,12.65
2022-08-29T03:13:47.671Z,12.61
2022-08-29T03:16:14.168Z,12.54
2022-08-29T03:18:41.020Z,12.50
2022-08-29T03:21:15.737Z,12.46
2022-08-29T03:23:42.301Z,12.42
2022-08-29T03:26:08.701Z,12.42
2022-08-29T03:28:35.114Z,12.42
2022-08-29T03:31:01.600Z,12.46
2022-08-29T03:33:28.091Z,12.45
2022-08-29T03:35:54.568Z,12.47
2022-08-29T03:38:22.708Z,12.41
2022-08-29T03:40:49.128Z,12.40
2022-08-29T03:43:15.578Z,12.36
2022-08-29T03:45:42.549Z,12.31
2022-08-29T03:48:08.961Z,12.29
2022-08-29T03:50:35.427Z,12.32
2022-08-29T03:53:01.888Z,12.29
2022-08-29T03:55:28.310Z,12.24
2022-08-29T03:57:56.076Z,12.23
2022-08-29T04:00:22.726Z,12.25
2022-08-29T04:02:50.566Z,12.28
2022-08-29T04:05:17.987Z,12.26
2022-08-29T04:07:46.658Z,12.23
2022-08-29T04:10:17.903Z,12.19
2022-08-29T04:12:44.375Z,12.18
2022-08-29T04:15:11.164Z,12.16
2022-08-29T04:17:45.525Z,12.21
2022-08-29T04:20:24.133Z,12.19
2022-08-29T04:22:51.649Z,12.17
2022-08-29T04:25:18.429Z,12.20
2022-08-29T04:27:44.992Z,12.20
2022-08-29T04:30:14.672Z,12.20
2022-08-29T04:32:41.469Z,12.19
2022-08-29T04:35:09.146Z,12.21
2022-08-29T04:37:35.597Z,12.22
2022-08-29T04:40:02.494Z,12.25
2022-08-29T04:42:30.134Z,12.31
2022-08-29T04:44:57.742Z,12.35
2022-08-29T04:47:24.334Z,12.46
2022-08-29T04:49:55.555Z,12.46
2022-08-29T04:52:23.212Z,12.47
2022-08-29T04:54:50.241Z,12.51
2022-08-29T04:57:16.979Z,12.55
2022-08-29T04:59:44.519Z,12.64
2022-08-29T05:02:11.749Z,12.66
2022-08-29T05:04:38.256Z,12.70
2022-08-29T05:07:05.191Z,12.73
2022-08-29T05:09:31.661Z,12.82
2022-08-29T05:11:58.434Z,12.89
2022-08-29T05:14:24.896Z,13.01
2022-08-29T05:16:51.493Z,13.05
2022-08-29T05:19:17.949Z,13.27
2022-08-29T05:21:44.684Z,13.52
2022-08-29T05:24:12.287Z,13.80
2022-08-29T05:26:42.473Z,13.90
2022-08-29T05:29:11.293Z,13.92
2022-08-29T05:31:42.403Z,13.95
2022-08-29T05:34:32.430Z,13.96
2022-08-29T05:36:59.595Z,14.00
2022-08-29T05:39:26.125Z,14.05
2022-08-29T05:41:56.927Z,14.11
2022-08-29T05:44:23.776Z,14.23
2022-08-29T05:46:50.574Z,14.30
2022-08-29T05:49:17.154Z,14.47
2022-08-29T05:51:43.634Z,14.54
2022-08-29T05:54:10.283Z,14.59
2022-08-29T05:56:36.716Z,14.65
2022-08-29T05:59:03.297Z,14.75
2022-08-29T06:01:32.707Z,14.84
2022-08-29T06:04:00.811Z,15.03
2022-08-29T06:06:28.640Z,15.13
2022-08-29T06:08:56.261Z,15.32
2022-08-29T06:11:25.321Z,15.51
2022-08-29T06:13:51.854Z,15.65
2022-08-29T06:16:20.462Z,16.01
2022-08-29T06:18:47.500Z,16.69
2022-08-29T06:21:14.818Z,17.52
2022-08-29T06:23:42.724Z,18.33
2022-08-29T06:26:10.241Z,19.24
2022-08-29T06:28:38.471Z,20.37
2022-08-29T06:31:17.741Z,22.02
2022-08-29T06:36:11.542Z,23.53
2022-08-29T06:38:38.263Z,23.77
2022-08-29T06:41:06.429Z,24.03
2022-08-29T06:43:32.965Z,25.42
2022-08-29T06:45:59.430Z,25.04
2022-08-29T06:48:29.436Z,26.37
2022-08-29T06:50:57.448Z,27.22
2022-08-29T06:53:31.554Z,28.13
2022-08-29T06:56:03.991Z,28.23
2022-08-29T06:58:31.866Z,28.79
2022-08-29T07:00:58.928Z,29.31
2022-08-29T07:03:25.411Z,29.61
2022-08-29T07:05:53.456Z,29.58
2022-08-29T07:08:20.269Z,29.67
2022-08-29T07:10:46.898Z,28.15
2022-08-29T07:13:13.634Z,28.74
2022-08-29T07:15:40.315Z,27.53
2022-08-29T07:18:06.802Z,27.56
2022-08-29T07:20:33.367Z,27.95
2022-08-29T07:22:59.786Z,28.69
2022-08-29T07:25:27.609Z,29.46
2022-08-29T07:27:54.329Z,29.92
2022-08-29T07:30:21.503Z,29.82
2022-08-29T07:32:48.120Z,29.60
2022-08-29T07:35:19.858Z,28.94
2022-08-29T07:37:52.831Z,30.01
2022-08-29T07:40:19.688Z,29.79
2022-08-29T07:42:46.416Z,28.09
2022-08-29T07:45:13.130Z,28.70
2022-08-29T07:47:39.538Z,29.65
2022-08-29T07:50:08.509Z,30.24
2022-08-29T07:52:35.286Z,30.90
2022-08-29T07:55:04.245Z,30.78
2022-08-29T07:57:31.422Z,31.66
2022-08-29T07:59:57.983Z,29.82
2022-08-29T08:02:24.509Z,30.02
2022-08-29T08:04:52.535Z,31.33
2022-08-29T08:07:19.182Z,31.27
2022-08-29T08:09:45.869Z,31.58
2022-08-29T08:12:12.716Z,30.14
2022-08-29T08:14:39.183Z,31.67
2022-08-29T08:17:05.886Z,31.55
2022-08-29T08:19:33.360Z,29.95
2022-08-29T08:21:59.867Z,30.86
2022-08-29T08:24:26.388Z,31.23
2022-08-29T08:26:52.993Z,29.70
2022-08-29T08:29:19.538Z,30.54
2022-08-29T08:31:49.811Z,30.23
2022-08-29T08:34:17.645Z,30.52
2022-08-29T08:36:44.926Z,31.06
2022-08-29T08:39:13.473Z,30.23
2022-08-29T08:41:51.019Z,31.10
2022-08-29T08:44:26.935Z,30.00
2022-08-29T08:47:00.010Z,31.12
2022-08-29T08:49:56.560Z,31.14
2022-08-29T08:52:30.186Z,31.34
2022-08-29T08:55:01.783Z,30.77
2022-08-29T08:57:35.598Z,31.62
2022-08-29T09:00:03.981Z,31.79
2022-08-29T09:02:42.905Z,31.10
2022-08-29T09:05:19.427Z,30.52
2022-08-29T09:08:04.523Z,29.62
2022-08-29T09:11:27.110Z,29.58
2022-08-29T09:13:59.593Z,30.63
2022-08-29T09:16:41.291Z,31.42
2022-08-29T09:19:11.412Z,31.66
2022-08-29T09:21:48.350Z,31.25
2022-08-29T09:24:55.323Z,31.25
2022-08-29T09:27:28.873Z,31.55
2022-08-29T09:30:18.137Z,32.43
2022-08-29T09:33:15.564Z,31.71
2022-08-29T09:35:51.835Z,31.11
2022-08-29T09:38:18.285Z,30.29
2022-08-29T09:40:55.518Z,29.52
2022-08-29T09:43:43.988Z,29.82
2022-08-29T09:46:25.089Z,30.47
2022-08-29T09:48:54.751Z,32.11
2022-08-29T09:51:28.383Z,30.96
2022-08-29T09:54:16.934Z,32.61
2022-08-29T09:56:56.485Z,33.20
2022-08-29T09:59:45.221Z,32.80
2022-08-29T10:02:27.280Z,33.49
2022-08-29T10:05:01.650Z,32.95
2022-08-29T10:07:36.282Z,33.24
2022-08-29T10:10:16.338Z,31.56
2022-08-29T10:13:09.240Z,32.15
2022-08-29T10:15:51.509Z,33.58
2022-08-29T10:18:51.175Z,33.76
2022-08-29T10:21:32.857Z,33.35
2022-08-29T10:24:37.728Z,34.61
2022-08-29T10:27:31.253Z,34.65
2022-08-29T10:30:05.899Z,34.40
2022-08-29T10:32:41.551Z,34.03
2022-08-29T10:35:32.277Z,32.53
2022-08-29T10:38:04.681Z,32.20
2022-08-29T10:40:51.534Z,32.54
2022-08-29T10:43:39.205Z,33.35
2022-08-29T10:46:29.156Z,34.52
2022-08-29T10:49:01.704Z,34.41
2022-08-29T10:51:46.958Z,33.09
2022-08-29T10:54:47.491Z,32.96
2022-08-29T10:57:22.344Z,31.67
2022-08-29T11:00:01.903Z,32.84
2022-08-29T11:02:37.690Z,31.51
2022-08-29T11:05:11.695Z,31.30
2022-08-29T11:07:48.166Z,30.68
2022-08-29T11:10:18.337Z,31.80
2022-08-29T11:12:58.678Z,30.87
2022-08-29T11:15:58.021Z,31.73
2022-08-29T11:18:39.798Z,33.47
2022-08-29T11:21:32.556Z,33.56
2022-08-29T11:24:03.090Z,33.51
2022-08-29T11:26:44.565Z,33.51
2022-08-29T11:29:38.359Z,31.77
2022-08-29T11:32:21.565Z,33.02
2022-08-29T11:35:06.290Z,31.90
2022-08-29T11:37:37.920Z,31.69
2022-08-29T11:40:07.195Z,30.89
2022-08-29T11:42:55.192Z,31.36
2022-08-29T11:45:36.862Z,31.92
2022-08-29T11:48:47.416Z,32.82
2022-08-29T11:51:35.935Z,32.60
2022-08-29T11:54:25.555Z,31.74
2022-08-29T11:57:01.021Z,31.40
2022-08-29T11:59:49.235Z,31.36
2022-08-29T12:02:27.668Z,30.29
2022-08-29T12:04:57.644Z,29.17
2022-08-29T12:07:35.120Z,29.20
2022-08-29T12:10:05.071Z,29.45
2022-08-29T12:12:47.466Z,30.46
2022-08-29T12:15:35.407Z,30.88
2022-08-29T12:18:21.908Z,29.77
2022-08-29T12:20:55.708Z,30.12
2022-08-29T12:23:33.931Z,30.16
2022-08-29T12:26:22.783Z,29.52
2022-08-29T12:29:01.771Z,30.00
2022-08-29T12:31:56.766Z,29.38
2022-08-29T12:34:57.633Z,28.73
2022-08-29T12:37:49.923Z,28.79
2022-08-29T12:40:39.014Z,29.05
2022-08-29T12:43:20.946Z,28.51
2022-08-29T12:45:49.142Z,28.73
2022-08-29T12:48:40.112Z,28.62
2022-08-29T12:51:06.697Z,28.14
2022-08-29T12:53:34.993Z,28.02
2022-08-29T12:56:13.866Z,27.80
2022-08-29T12:58:41.820Z,28.15
2022-08-29T13:01:33.713Z,27.94
2022-08-29T13:04:06.396Z,28.07
2022-08-29T13:06:33.696Z,28.21
2022-08-29T13:09:00.771Z,28.31
2022-08-29T13:11:29.634Z,28.63
2022-08-29T13:14:12.241Z,28.54
2022-08-29T13:16:39.703Z,28.62
2022-08-29T13:19:19.603Z,28.59
2022-08-29T13:21:46.477Z,28.51
2022-08-29T13:24:19.278Z,28.53
2022-08-29T13:27:04.541Z,28.59
2022-08-29T13:29:59.307Z,28.49
2022-08-29T13:32:26.859Z,27.13
2022-08-29T13:35:00.303Z,27.82
2022-08-29T13:37:32.939Z,27.54
2022-08-29T13:40:32.871Z,27.69
2022-08-29T13:43:00.307Z,27.42
2022-08-29T13:45:27.224Z,27.32
2022-08-29T13:48:05.800Z,27.03
2022-08-29T13:50:32.507Z,27.04
2022-08-29T13:52:59.096Z,27.05
2022-08-29T13:55:26.478Z,27.02
2022-08-29T13:57:54.512Z,26.23
2022-08-29T14:00:30.256Z,26.40
2022-08-29T14:03:02.998Z,26.42
2022-08-29T14:05:30.177Z,26.62
2022-08-29T14:07:57.012Z,26.63
2022-08-29T14:10:23.670Z,26.83
2022-08-29T14:12:50.376Z,26.61
2022-08-29T14:15:21.043Z,26.84
2022-08-29T14:17:47.981Z,26.76
2022-08-29T14:20:16.136Z,27.16
2022-08-29T14:22:42.601Z,27.16
2022-08-29T14:25:10.617Z,27.17
2022-08-29T14:27:37.940Z,27.11
2022-08-29T14:30:08.963Z,26.73
2022-08-29T14:32:35.570Z,26.56
2022-08-29T14:35:02.925Z,26.72
2022-08-29T14:37:29.535Z,27.10
2022-08-29T14:39:56.050Z,27.51
2022-08-29T14:42:24.759Z,27.50
2022-08-29T14:44:51.297Z,27.78
2022-08-29T14:47:17.937Z,27.40
2022-08-29T14:49:44.361Z,27.51
2022-08-29T14:52:14.829Z,27.33
2022-08-29T14:54:42.949Z,27.38
2022-08-29T14:57:10.487Z,27.28
2022-08-29T14:59:37.089Z,27.11
2022-08-29T15:02:04.970Z,26.99
2022-08-29T15:04:35.382Z,26.96
2022-08-29T15:07:09.475Z,27.36
2022-08-29T15:09:36.593Z,27.53
2022-08-29T15:12:03.714Z,26.31
2022-08-29T15:14:30.459Z,26.74
2022-08-29T15:16:57.243Z,26.66
2022-08-29T15:20:03.693Z,26.65
2022-08-29T15:22:12.864Z,26.59
2022-08-29T15:24:39.746Z,26.85
2022-08-29T15:27:06.987Z,26.80
2022-08-29T15:29:34.605Z,26.56
2022-08-29T15:32:01.436Z,26.40
2022-08-29T15:34:29.123Z,26.12
2022-08-29T15:36:56.476Z,26.05
2022-08-29T15:39:25.474Z,26.11
2022-08-29T15:41:52.381Z,26.33
2022-08-29T15:44:19.392Z,26.37
2022-08-29T15:46:51.045Z,26.08
2022-08-29T15:49:19.774Z,26.28
2022-08-29T15:51:47.036Z,26.13
2022-08-29T15:54:14.679Z,26.16
2022-08-29T15:56:41.500Z,26.04
2022-08-29T15:59:09.903Z,25.91
2022-08-29T16:01:57.047Z,25.86
2022-08-29T16:04:25.009Z,25.59
2022-08-29T16:06:53.282Z,25.60
2022-08-29T16:09:20.790Z,25.71
2022-08-29T16:11:49.947Z,25.70
2022-08-29T16:17:05.584Z,25.46
2022-08-29T16:19:32.712Z,25.51
2022-08-29T16:22:04.895Z,25.26
2022-08-29T16:24:34.781Z,25.41
2022-08-29T16:27:01.340Z,25.09
2022-08-29T16:29:29.026Z,24.99
2022-08-29T16:31:58.325Z,24.94
2022-08-29T16:34:26.455Z,24.98
2022-08-29T16:36:59.980Z,24.74
2022-08-29T16:39:27.366Z,24.54
2022-08-29T16:41:54.158Z,24.73
2022-08-29T16:44:20.941Z,24.74
2022-08-29T16:46:47.551Z,24.50
2022-08-29T16:49:14.014Z,24.59
2022-08-29T16:51:40.573Z,24.50
2022-08-29T16:54:07.170Z,24.18
2022-08-29T16:56:33.750Z,23.95
2022-08-29T16:59:00.362Z,23.81
2022-08-29T17:01:31.175Z,23.65
2022-08-29T17:03:58.486Z,23.53
2022-08-29T17:06:25.093Z,23.33
2022-08-29T17:08:51.506Z,23.08
2022-08-29T17:11:19.346Z,22.89
2022-08-29T17:13:45.847Z,22.62
2022-08-29T17:16:13.397Z,22.56
2022-08-29T17:18:40.429Z,22.55
2022-08-29T17:21:07.411Z,22.56
2022-08-29T17:23:35.719Z,22.49
2022-08-29T17:26:05.179Z,22.30
2022-08-29T17:28:32.241Z,22.19
2022-08-29T17:30:58.904Z,22.07
2022-08-29T17:33:26.913Z,21.98
2022-08-29T17:35:53.998Z,21.82
2022-08-29T17:38:20.742Z,21.79
2022-08-29T17:40:48.088Z,21.66
2022-08-29T17:43:18.319Z,21.56
2022-08-29T17:45:45.961Z,21.38
2022-08-29T17:48:12.532Z,21.32
2022-08-29T17:50:40.058Z,21.26
2022-08-29T17:53:06.630Z,21.14
2022-08-29T17:55:33.106Z,20.96
2022-08-29T17:57:59.553Z,20.80
2022-08-29T18:00:26.115Z,20.70
2022-08-29T18:02:52.805Z,20.51
2022-08-29T18:05:19.397Z,20.46
2022-08-29T18:07:45.896Z,20.34
2022-08-29T18:10:15.217Z,20.20
2022-08-29T18:12:42.398Z,20.15
2022-08-29T18:15:09.853Z,20.09
2022-08-29T18:17:37.510Z,19.94
2022-08-29T18:20:05.132Z,19.94
2022-08-29T18:22:32.142Z,19.84
2022-08-29T18:24:58.627Z,19.80
2022-08-29T18:27:27.919Z,19.61
2022-08-29T18:29:55.139Z,19.62
2022-08-29T18:32:24.217Z,19.51
2022-08-29T18:34:51.151Z,19.48
2022-08-29T18:37:17.558Z,19.37
2022-08-29T18:39:44.451Z,19.27
2022-08-29T18:42:30.412Z,19.24
2022-08-29T18:44:57.278Z,19.16
2022-08-29T18:47:23.965Z,19.14
2022-08-29T18:50:25.834Z,19.07
2022-08-29T18:52:53.470Z,18.98
2022-08-29T18:55:20.582Z,19.03
2022-08-29T18:57:48.115Z,18.94
2022-08-29T19:00:15.652Z,18.84
2022-08-29T19:02:42.441Z,18.73
2022-08-29T19:05:09.126Z,18.73
2022-08-29T19:07:35.696Z,18.67
2022-08-29T19:10:02.420Z,18.63
2022-08-29T19:12:29.025Z,18.57
2022-08-29T19:14:56.320Z,18.45
2022-08-29T19:17:23.083Z,18.40
2022-08-29T19:20:10.002Z,18.37
2022-08-29T19:22:38.148Z,18.31
2022-08-29T19:25:06.133Z,18.28
2022-08-29T19:27:43.242Z,18.10
2022-08-29T19:30:12.136Z,18.08
2022-08-29T19:32:39.264Z,18.06
2022-08-29T19:35:06.837Z,17.95
2022-08-29T19:37:33.427Z,17.80
2022-08-29T19:40:05.706Z,17.69
2022-08-29T19:42:32.210Z,17.72
2022-08-29T19:44:58.846Z,17.63
2022-08-29T19:47:25.321Z,17.63
2022-08-29T19:49:52.371Z,17.63
2022-08-29T19:52:18.826Z,17.53
2022-08-29T19:54:46.347Z,17.44
2022-08-29T19:57:14.585Z,17.40
2022-08-29T19:59:42.429Z,17.37
2022-08-29T20:02:10.277Z,17.32
2022-08-29T20:04:37.039Z,17.25
2022-08-29T20:07:04.118Z,17.19
2022-08-29T20:09:31.533Z,17.14
2022-08-29T20:11:59.050Z,17.05
2022-08-29T20:14:25.652Z,16.92
2022-08-29T20:16:52.894Z,16.80
2022-08-29T20:19:21.297Z,16.77
2022-08-29T20:21:48.782Z,16.58
2022-08-29T20:24:15.729Z,16.53
2022-08-29T20:26:44.373Z,16.50
2022-08-29T20:29:12.201Z,16.47
2022-08-29T20:31:40.078Z,16.48
2022-08-29T20:34:07.072Z,16.53
2022-08-29T20:36:52.408Z,16.41
2022-08-29T20:39:20.405Z,16.40
2022-08-29T20:41:48.937Z,16.39
2022-08-29T20:44:18.219Z,16.24
2022-08-29T20:46:45.231Z,16.16
2022-08-29T20:49:15.030Z,16.09
2022-08-29T20:51:45.074Z,16.14
2022-08-29T20:54:13.452Z,16.06
2022-08-29T20:56:40.265Z,16.01
2022-08-29T20:59:07.212Z,15.95
2022-08-29T21:01:35.894Z,16.04
2022-08-29T21:04:23.667Z,16.09
2022-08-29T21:06:54.839Z,15.98
2022-08-29T21:09:22.402Z,15.86
2022-08-29T21:11:49.738Z,15.80
2022-08-29T21:14:16.380Z,15.76
2022-08-29T21:16:42.832Z,15.80
2022-08-29T21:19:09.868Z,15.78
2022-08-29T21:21:37.250Z,15.68
2022-08-29T21:24:06.081Z,15.68
2022-08-29T21:26:34.031Z,15.59
2022-08-29T21:29:01.591Z,15.51
2022-08-29T21:31:28.237Z,15.50
2022-08-29T21:33:54.768Z,15.49
2022-08-29T21:36:25.676Z,15.41
2022-08-29T21:38:54.868Z,15.43
2022-08-29T21:41:21.990Z,15.38
2022-08-29T21:43:48.803Z,15.41
2022-08-29T21:46:16.680Z,15.32
2022-08-29T21:48:43.281Z,15.28
2022-08-29T21:51:10.151Z,15.23
2022-08-29T21:53:36.642Z,15.21
2022-08-29T21:56:08.151Z,15.21
2022-08-29T21:58:34.731Z,15.24
2022-08-29T22:01:01.136Z,15.12
2022-08-29T22:03:27.710Z,15.07
2022-08-29T22:05:54.408Z,15.04
2022-08-29T22:08:21.217Z,14.99
2022-08-29T22:10:48.416Z,15.03
2022-08-29T22:13:15.620Z,14.99
2022-08-29T22:16:01.049Z,14.98
2022-08-29T22:18:27.671Z,14.92
2022-08-29T22:20:56.905Z,14.94
2022-08-29T22:23:24.705Z,14.93
2022-08-29T22:25:51.470Z,14.92
2022-08-29T22:28:17.951Z,14.89
2022-08-29T22:30:44.388Z,14.90
2022-08-29T22:33:16.780Z,14.86
2022-08-29T22:35:43.736Z,14.85
2022-08-29T22:38:10.446Z,14.82
2022-08-29T22:40:36.952Z,14.84
2022-08-29T22:43:04.045Z,14.78
2022-08-29T22:45:32.275Z,14.83
2022-08-29T22:47:58.966Z,14.80
2022-08-29T22:50:26.384Z,14.81
2022-08-29T22:52:57.051Z,14.74
2022-08-29T22:57:49.765Z,14.65
2022-08-29T23:00:19.516Z,14.67
2022-08-29T23:02:47.217Z,14.60
2022-08-29T23:05:14.444Z,14.51
2022-08-29T23:07:41.012Z,14.53
2022-08-29T23:10:09.104Z,14.51
2022-08-29T23:12:36.221Z,14.50
2022-08-29T23:15:10.016Z,14.48
2022-08-29T23:17:37.560Z,14.44
2022-08-29T23:20:07.154Z,14.44
2022-08-29T23:22:35.783Z,14.46
2022-08-29T23:25:03.564Z,14.49
2022-08-29T23:27:32.213Z,14.42
2022-08-29T23:30:01.000Z,14.36
2022-08-29T23:32:28.337Z,14.33
2022-08-29T23:34:55.573Z,14.27
2022-08-29T23:37:22.236Z,14.29
2022-08-29T23:39:49.972Z,14.25
2022-08-29T23:42:17.228Z,14.25
2022-08-29T23:44:43.761Z,14.22
2022-08-29T23:47:10.569Z,14.15
2022-08-29T23:49:37.016Z,14.13
2022-08-29T23:52:04.289Z,14.18
2022-08-29T23:54:31.470Z,14.17
2022-08-29T23:56:58.169Z,14.20
2022-08-29T23:59:43.482Z,14.17
